sensor_id;sensor_type;location;lat;lon;timestamp;pressure;altitude;pressure_sealevel;temperature;humidity
45813;BME280;31519;45.408;10.962;2023-02-08T00:01:22;102754.69;;;3.00;59.87
45813;BME280;31519;45.408;10.962;2023-02-08T00:03:51;102751.09;;;3.15;58.40
45813;BME280;31519;45.408;10.962;2023-02-08T00:06:20;102745.22;;;3.26;58.70
45813;BME280;31519;45.408;10.962;2023-02-08T00:08:48;102743.41;;;3.20;58.57
45813;BME280;31519;45.408;10.962;2023-02-08T00:11:16;102747.44;;;3.09;59.19
45813;BME280;31519;45.408;10.962;2023-02-08T00:13:44;102746.03;;;3.20;58.60
45813;BME280;31519;45.408;10.962;2023-02-08T00:16:13;102749.28;;;3.15;58.94
45813;BME280;31519;45.408;10.962;2023-02-08T00:18:41;102746.81;;;3.00;59.11
45813;BME280;31519;45.408;10.962;2023-02-08T00:21:14;102753.25;;;2.91;59.28
45813;BME280;31519;45.408;10.962;2023-02-08T00:23:43;102762.78;;;2.92;59.11
45813;BME280;31519;45.408;10.962;2023-02-08T00:26:11;102768.25;;;3.04;58.78
45813;BME280;31519;45.408;10.962;2023-02-08T00:28:40;102766.88;;;3.15;58.27
45813;BME280;31519;45.408;10.962;2023-02-08T00:31:09;102765.84;;;3.09;59.02
45813;BME280;31519;45.408;10.962;2023-02-08T00:33:37;102761.38;;;3.03;59.06
45813;BME280;31519;45.408;10.962;2023-02-08T00:36:07;102761.59;;;3.01;59.01
45813;BME280;31519;45.408;10.962;2023-02-08T00:38:35;102764.44;;;3.13;58.68
45813;BME280;31519;45.408;10.962;2023-02-08T00:41:04;102764.78;;;2.90;58.87
45813;BME280;31519;45.408;10.962;2023-02-08T00:43:32;102767.88;;;3.07;59.49
45813;BME280;31519;45.408;10.962;2023-02-08T00:46:02;102768.41;;;2.89;60.23
45813;BME280;31519;45.408;10.962;2023-02-08T00:48:30;102772.44;;;2.85;59.51
45813;BME280;31519;45.408;10.962;2023-02-08T00:51:05;102778.88;;;2.70;60.28
45813;BME280;31519;45.408;10.962;2023-02-08T00:53:35;102783.84;;;2.92;59.17
45813;BME280;31519;45.408;10.962;2023-02-08T00:56:06;102793.50;;;2.85;58.06
45813;BME280;31519;45.408;10.962;2023-02-08T00:58:35;102792.13;;;2.96;57.90
45813;BME280;31519;45.408;10.962;2023-02-08T01:01:04;102786.78;;;2.76;57.51
45813;BME280;31519;45.408;10.962;2023-02-08T01:03:34;102782.78;;;2.87;57.49
45813;BME280;31519;45.408;10.962;2023-02-08T01:06:06;102788.66;;;2.82;57.92
45813;BME280;31519;45.408;10.962;2023-02-08T01:08:35;102795.22;;;2.58;58.66
45813;BME280;31519;45.408;10.962;2023-02-08T01:11:04;102797.53;;;2.75;58.03
45813;BME280;31519;45.408;10.962;2023-02-08T01:13:34;102794.91;;;2.81;58.63
45813;BME280;31519;45.408;10.962;2023-02-08T01:16:08;102791.06;;;2.77;58.54
45813;BME280;31519;45.408;10.962;2023-02-08T01:18:38;102790.78;;;3.06;56.52
45813;BME280;31519;45.408;10.962;2023-02-08T01:21:11;102798.44;;;3.01;56.92
45813;BME280;31519;45.408;10.962;2023-02-08T01:23:40;102800.25;;;3.01;55.30
45813;BME280;31519;45.408;10.962;2023-02-08T01:26:13;102797.84;;;3.12;54.92
45813;BME280;31519;45.408;10.962;2023-02-08T01:28:42;102797.63;;;3.01;54.57
45813;BME280;31519;45.408;10.962;2023-02-08T01:31:13;102799.84;;;2.97;52.61
45813;BME280;31519;45.408;10.962;2023-02-08T01:33:42;102798.22;;;3.03;53.84
45813;BME280;31519;45.408;10.962;2023-02-08T01:36:10;102804.53;;;3.08;54.34
45813;BME280;31519;45.408;10.962;2023-02-08T01:38:42;102806.13;;;2.96;54.88
45813;BME280;31519;45.408;10.962;2023-02-08T01:41:33;102802.44;;;2.91;54.86
45813;BME280;31519;45.408;10.962;2023-02-08T01:46:47;102802.84;;;2.88;53.92
45813;BME280;31519;45.408;10.962;2023-02-08T01:49:33;102796.78;;;2.94;53.73
45813;BME280;31519;45.408;10.962;2023-02-08T01:52:12;102801.22;;;2.87;53.54
45813;BME280;31519;45.408;10.962;2023-02-08T01:54:49;102797.13;;;2.84;54.55
45813;BME280;31519;45.408;10.962;2023-02-08T01:57:19;102786.84;;;2.89;54.47
45813;BME280;31519;45.408;10.962;2023-02-08T01:59:55;102788.66;;;2.82;53.85
45813;BME280;31519;45.408;10.962;2023-02-08T02:02:26;102785.91;;;3.10;52.13
45813;BME280;31519;45.408;10.962;2023-02-08T02:04:54;102784.94;;;3.24;50.52
45813;BME280;31519;45.408;10.962;2023-02-08T02:07:25;102792.47;;;3.34;46.07
45813;BME280;31519;45.408;10.962;2023-02-08T02:10:02;102786.81;;;3.76;43.83
45813;BME280;31519;45.408;10.962;2023-02-08T02:12:32;102792.09;;;4.03;42.48
45813;BME280;31519;45.408;10.962;2023-02-08T02:15:02;102790.28;;;4.03;42.33
45813;BME280;31519;45.408;10.962;2023-02-08T02:17:30;102778.69;;;4.17;42.07
45813;BME280;31519;45.408;10.962;2023-02-08T02:20:21;102779.28;;;4.13;41.83
45813;BME280;31519;45.408;10.962;2023-02-08T02:24:02;102776.25;;;4.22;41.41
45813;BME280;31519;45.408;10.962;2023-02-08T02:40:38;102761.19;;;4.42;38.93
45813;BME280;31519;45.408;10.962;2023-02-08T02:46:21;102760.13;;;4.57;38.48
45813;BME280;31519;45.408;10.962;2023-02-08T02:49:05;102760.56;;;4.47;38.09
45813;BME280;31519;45.408;10.962;2023-02-08T02:51:42;102752.06;;;4.38;37.86
45813;BME280;31519;45.408;10.962;2023-02-08T02:56:47;102763.97;;;4.54;37.58
45813;BME280;31519;45.408;10.962;2023-02-08T02:59:17;102768.50;;;4.40;37.95
45813;BME280;31519;45.408;10.962;2023-02-08T03:01:47;102773.16;;;4.45;38.51
45813;BME280;31519;45.408;10.962;2023-02-08T03:04:18;102774.19;;;4.37;37.47
45813;BME280;31519;45.408;10.962;2023-02-08T03:18:10;102785.75;;;4.36;37.98
45813;BME280;31519;45.408;10.962;2023-02-08T03:21:06;102791.03;;;4.36;37.45
45813;BME280;31519;45.408;10.962;2023-02-08T03:27:00;102797.34;;;4.22;37.86
45813;BME280;31519;45.408;10.962;2023-02-08T03:32:37;102794.50;;;4.30;37.77
45813;BME280;31519;45.408;10.962;2023-02-08T03:35:33;102801.63;;;4.03;38.67
45813;BME280;31519;45.408;10.962;2023-02-08T03:38:10;102809.16;;;3.93;39.19
45813;BME280;31519;45.408;10.962;2023-02-08T03:40:46;102806.09;;;3.83;39.61
45813;BME280;31519;45.408;10.962;2023-02-08T03:43:40;102805.69;;;3.73;39.62
45813;BME280;31519;45.408;10.962;2023-02-08T03:49:34;102808.72;;;3.70;40.21
45813;BME280;31519;45.408;10.962;2023-02-08T03:52:06;102805.47;;;3.55;41.08
45813;BME280;31519;45.408;10.962;2023-02-08T03:54:47;102799.41;;;3.61;40.48
45813;BME280;31519;45.408;10.962;2023-02-08T04:00:06;102791.50;;;3.61;41.05
45813;BME280;31519;45.408;10.962;2023-02-08T04:02:52;102790.66;;;3.67;40.58
45813;BME280;31519;45.408;10.962;2023-02-08T04:05:22;102800.22;;;3.81;39.66
45813;BME280;31519;45.408;10.962;2023-02-08T04:07:51;102800.00;;;3.83;39.69
45813;BME280;31519;45.408;10.962;2023-02-08T04:10:19;102801.00;;;3.55;40.47
45813;BME280;31519;45.408;10.962;2023-02-08T04:12:48;102804.03;;;3.46;41.10
45813;BME280;31519;45.408;10.962;2023-02-08T04:15:16;102805.25;;;3.50;41.34
45813;BME280;31519;45.408;10.962;2023-02-08T04:17:45;102804.59;;;3.35;42.16
45813;BME280;31519;45.408;10.962;2023-02-08T04:20:13;102804.34;;;3.17;42.62
45813;BME280;31519;45.408;10.962;2023-02-08T04:22:44;102803.97;;;3.20;42.52
45813;BME280;31519;45.408;10.962;2023-02-08T04:29:42;102793.19;;;3.01;42.84
45813;BME280;31519;45.408;10.962;2023-02-08T04:32:10;102792.72;;;2.91;42.89
45813;BME280;31519;45.408;10.962;2023-02-08T04:34:40;102787.94;;;3.15;42.78
45813;BME280;31519;45.408;10.962;2023-02-08T04:37:08;102779.91;;;3.29;42.19
45813;BME280;31519;45.408;10.962;2023-02-08T04:39:37;102785.97;;;3.36;42.00
45813;BME280;31519;45.408;10.962;2023-02-08T04:42:05;102788.63;;;3.43;40.75
45813;BME280;31519;45.408;10.962;2023-02-08T04:44:33;102785.38;;;3.54;40.90
45813;BME280;31519;45.408;10.962;2023-02-08T04:47:02;102783.38;;;3.63;40.35
45813;BME280;31519;45.408;10.962;2023-02-08T04:49:31;102775.84;;;3.53;40.64
45813;BME280;31519;45.408;10.962;2023-02-08T04:51:59;102779.13;;;3.62;40.40
45813;BME280;31519;45.408;10.962;2023-02-08T04:54:27;102781.72;;;3.48;41.47
45813;BME280;31519;45.408;10.962;2023-02-08T04:56:55;102792.69;;;3.39;41.27
45813;BME280;31519;45.408;10.962;2023-02-08T04:59:23;102780.53;;;3.57;41.26
45813;BME280;31519;45.408;10.962;2023-02-08T05:01:51;102791.25;;;3.49;42.04
45813;BME280;31519;45.408;10.962;2023-02-08T05:04:20;102794.09;;;3.41;41.64
45813;BME280;31519;45.408;10.962;2023-02-08T05:06:48;102794.66;;;3.30;41.55
45813;BME280;31519;45.408;10.962;2023-02-08T05:09:16;102795.88;;;3.28;41.85
45813;BME280;31519;45.408;10.962;2023-02-08T05:11:44;102794.06;;;3.28;41.76
45813;BME280;31519;45.408;10.962;2023-02-08T05:14:13;102793.66;;;3.31;41.62
45813;BME280;31519;45.408;10.962;2023-02-08T05:16:41;102782.69;;;3.15;42.99
45813;BME280;31519;45.408;10.962;2023-02-08T05:19:12;102795.09;;;2.80;44.80
45813;BME280;31519;45.408;10.962;2023-02-08T05:21:41;102793.38;;;2.59;46.15
45813;BME280;31519;45.408;10.962;2023-02-08T05:24:09;102798.03;;;2.57;47.13
45813;BME280;31519;45.408;10.962;2023-02-08T05:26:39;102799.28;;;2.27;47.18
45813;BME280;31519;45.408;10.962;2023-02-08T05:29:08;102790.47;;;2.13;48.48
45813;BME280;31519;45.408;10.962;2023-02-08T05:31:37;102795.59;;;2.21;48.20
45813;BME280;31519;45.408;10.962;2023-02-08T05:34:06;102800.59;;;2.44;47.80
45813;BME280;31519;45.408;10.962;2023-02-08T05:36:34;102802.91;;;2.26;48.36
45813;BME280;31519;45.408;10.962;2023-02-08T05:39:02;102800.66;;;1.95;48.21
45813;BME280;31519;45.408;10.962;2023-02-08T05:41:30;102805.28;;;2.20;48.79
45813;BME280;31519;45.408;10.962;2023-02-08T05:43:59;102808.22;;;2.32;47.97
45813;BME280;31519;45.408;10.962;2023-02-08T05:46:27;102803.09;;;1.96;47.75
45813;BME280;31519;45.408;10.962;2023-02-08T05:48:55;102808.47;;;2.09;48.25
45813;BME280;31519;45.408;10.962;2023-02-08T05:51:23;102808.69;;;1.87;48.83
45813;BME280;31519;45.408;10.962;2023-02-08T05:53:51;102808.19;;;1.76;49.34
45813;BME280;31519;45.408;10.962;2023-02-08T05:56:19;102797.16;;;1.88;48.13
45813;BME280;31519;45.408;10.962;2023-02-08T05:58:48;102800.94;;;1.57;48.46
45813;BME280;31519;45.408;10.962;2023-02-08T06:01:17;102806.44;;;1.62;48.99
45813;BME280;31519;45.408;10.962;2023-02-08T06:03:45;102816.00;;;1.70;48.98
45813;BME280;31519;45.408;10.962;2023-02-08T06:06:13;102814.94;;;1.86;49.14
45813;BME280;31519;45.408;10.962;2023-02-08T06:08:42;102816.00;;;1.70;49.02
45813;BME280;31519;45.408;10.962;2023-02-08T06:11:09;102820.06;;;1.72;49.30
45813;BME280;31519;45.408;10.962;2023-02-08T06:13:38;102808.25;;;1.62;48.87
45813;BME280;31519;45.408;10.962;2023-02-08T06:16:06;102809.00;;;1.77;48.31
45813;BME280;31519;45.408;10.962;2023-02-08T06:18:35;102804.03;;;1.89;48.20
45813;BME280;31519;45.408;10.962;2023-02-08T06:21:03;102817.00;;;1.90;48.87
45813;BME280;31519;45.408;10.962;2023-02-08T06:23:31;102816.25;;;1.96;49.11
45813;BME280;31519;45.408;10.962;2023-02-08T06:25:59;102809.59;;;2.00;48.57
45813;BME280;31519;45.408;10.962;2023-02-08T06:28:28;102815.69;;;1.79;50.15
45813;BME280;31519;45.408;10.962;2023-02-08T06:30:56;102810.38;;;1.73;50.01
45813;BME280;31519;45.408;10.962;2023-02-08T06:33:24;102809.69;;;1.64;49.95
45813;BME280;31519;45.408;10.962;2023-02-08T06:35:52;102808.34;;;1.96;50.24
45813;BME280;31519;45.408;10.962;2023-02-08T06:38:20;102816.00;;;1.91;49.87
45813;BME280;31519;45.408;10.962;2023-02-08T06:40:49;102808.22;;;2.04;49.75
45813;BME280;31519;45.408;10.962;2023-02-08T06:43:17;102811.72;;;1.90;49.56
45813;BME280;31519;45.408;10.962;2023-02-08T06:45:46;102816.25;;;1.75;49.71
45813;BME280;31519;45.408;10.962;2023-02-08T06:48:14;102809.13;;;1.69;50.73
45813;BME280;31519;45.408;10.962;2023-02-08T06:50:42;102815.09;;;1.84;49.86
45813;BME280;31519;45.408;10.962;2023-02-08T06:53:11;102812.84;;;2.02;49.40
45813;BME280;31519;45.408;10.962;2023-02-08T06:55:39;102812.09;;;2.08;49.99
45813;BME280;31519;45.408;10.962;2023-02-08T06:58:07;102816.25;;;1.96;49.40
45813;BME280;31519;45.408;10.962;2023-02-08T07:00:36;102816.38;;;2.16;49.74
45813;BME280;31519;45.408;10.962;2023-02-08T07:03:06;102820.69;;;1.96;49.78
45813;BME280;31519;45.408;10.962;2023-02-08T07:05:36;102818.75;;;2.11;49.29
45813;BME280;31519;45.408;10.962;2023-02-08T07:08:05;102826.53;;;1.98;49.81
45813;BME280;31519;45.408;10.962;2023-02-08T07:10:33;102829.66;;;2.08;50.01
45813;BME280;31519;45.408;10.962;2023-02-08T07:13:02;102834.41;;;2.19;50.00
45813;BME280;31519;45.408;10.962;2023-02-08T07:15:30;102826.66;;;2.11;50.33
45813;BME280;31519;45.408;10.962;2023-02-08T07:17:59;102829.75;;;2.21;49.68
45813;BME280;31519;45.408;10.962;2023-02-08T07:20:27;102826.13;;;2.22;50.10
45813;BME280;31519;45.408;10.962;2023-02-08T07:22:56;102825.44;;;2.69;49.45
45813;BME280;31519;45.408;10.962;2023-02-08T07:25:24;102823.03;;;2.40;48.82
45813;BME280;31519;45.408;10.962;2023-02-08T07:27:52;102820.03;;;2.84;48.74
45813;BME280;31519;45.408;10.962;2023-02-08T07:30:20;102822.97;;;2.61;49.53
45813;BME280;31519;45.408;10.962;2023-02-08T07:32:48;102826.50;;;2.81;48.21
45813;BME280;31519;45.408;10.962;2023-02-08T07:35:16;102822.78;;;3.10;48.58
45813;BME280;31519;45.408;10.962;2023-02-08T07:37:45;102826.03;;;3.19;47.40
45813;BME280;31519;45.408;10.962;2023-02-08T07:40:13;102828.28;;;3.22;46.93
45813;BME280;31519;45.408;10.962;2023-02-08T07:42:41;102825.66;;;3.35;47.08
45813;BME280;31519;45.408;10.962;2023-02-08T07:45:24;102830.81;;;3.63;46.65
45813;BME280;31519;45.408;10.962;2023-02-08T07:47:53;102827.19;;;3.70;46.29
45813;BME280;31519;45.408;10.962;2023-02-08T07:50:21;102833.63;;;3.54;47.27
45813;BME280;31519;45.408;10.962;2023-02-08T07:52:49;102833.47;;;3.95;46.55
45813;BME280;31519;45.408;10.962;2023-02-08T07:55:17;102835.50;;;4.13;45.70
45813;BME280;31519;45.408;10.962;2023-02-08T07:57:48;102838.31;;;3.85;46.10
45813;BME280;31519;45.408;10.962;2023-02-08T08:00:17;102845.84;;;4.34;45.41
45813;BME280;31519;45.408;10.962;2023-02-08T08:02:46;102834.47;;;4.34;44.79
45813;BME280;31519;45.408;10.962;2023-02-08T08:05:17;102835.09;;;4.29;44.91
45813;BME280;31519;45.408;10.962;2023-02-08T08:07:46;102836.53;;;4.25;44.49
45813;BME280;31519;45.408;10.962;2023-02-08T08:10:14;102844.22;;;4.20;44.53
45813;BME280;31519;45.408;10.962;2023-02-08T08:12:42;102847.84;;;4.52;44.09
45813;BME280;31519;45.408;10.962;2023-02-08T08:15:10;102836.22;;;4.73;44.00
45813;BME280;31519;45.408;10.962;2023-02-08T08:17:38;102831.50;;;4.88;43.47
45813;BME280;31519;45.408;10.962;2023-02-08T08:20:10;102834.22;;;5.51;42.92
45813;BME280;31519;45.408;10.962;2023-02-08T08:22:38;102842.41;;;5.49;42.92
45813;BME280;31519;45.408;10.962;2023-02-08T08:25:06;102843.97;;;5.88;42.72
45813;BME280;31519;45.408;10.962;2023-02-08T08:27:35;102839.84;;;5.99;40.84
45813;BME280;31519;45.408;10.962;2023-02-08T08:30:09;102844.03;;;5.82;41.51
45813;BME280;31519;45.408;10.962;2023-02-08T08:32:38;102836.59;;;6.21;39.11
45813;BME280;31519;45.408;10.962;2023-02-08T08:35:07;102850.34;;;6.05;38.77
45813;BME280;31519;45.408;10.962;2023-02-08T08:37:36;102846.97;;;6.23;37.83
45813;BME280;31519;45.408;10.962;2023-02-08T08:40:06;102838.03;;;6.79;37.40
45813;BME280;31519;45.408;10.962;2023-02-08T08:42:35;102840.38;;;7.05;36.19
45813;BME280;31519;45.408;10.962;2023-02-08T08:45:03;102839.94;;;7.08;35.49
45813;BME280;31519;45.408;10.962;2023-02-08T08:47:32;102829.72;;;7.41;35.65
45813;BME280;31519;45.408;10.962;2023-02-08T08:50:00;102842.34;;;7.28;34.36
45813;BME280;31519;45.408;10.962;2023-02-08T08:52:28;102845.13;;;7.33;34.09
45813;BME280;31519;45.408;10.962;2023-02-08T08:54:56;102842.03;;;7.47;34.13
45813;BME280;31519;45.408;10.962;2023-02-08T08:57:25;102838.97;;;7.62;33.53
45813;BME280;31519;45.408;10.962;2023-02-08T08:59:53;102838.69;;;7.40;33.27
45813;BME280;31519;45.408;10.962;2023-02-08T09:02:21;102840.25;;;7.60;33.37
45813;BME280;31519;45.408;10.962;2023-02-08T09:04:49;102841.00;;;7.90;33.08
45813;BME280;31519;45.408;10.962;2023-02-08T09:07:18;102840.88;;;7.73;32.97
45813;BME280;31519;45.408;10.962;2023-02-08T09:09:46;102845.28;;;7.91;32.96
45813;BME280;31519;45.408;10.962;2023-02-08T09:12:14;102851.75;;;8.07;33.05
45813;BME280;31519;45.408;10.962;2023-02-08T09:14:43;102843.91;;;8.12;32.63
45813;BME280;31519;45.408;10.962;2023-02-08T09:17:11;102842.69;;;8.37;32.89
45813;BME280;31519;45.408;10.962;2023-02-08T09:19:39;102846.94;;;8.50;32.47
45813;BME280;31519;45.408;10.962;2023-02-08T09:22:09;102851.69;;;8.60;32.18
45813;BME280;31519;45.408;10.962;2023-02-08T09:24:37;102853.63;;;8.53;32.15
45813;BME280;31519;45.408;10.962;2023-02-08T09:27:07;102855.34;;;8.24;33.09
45813;BME280;31519;45.408;10.962;2023-02-08T09:29:35;102850.47;;;7.97;33.41
45813;BME280;31519;45.408;10.962;2023-02-08T09:32:03;102853.72;;;8.11;32.75
45813;BME280;31519;45.408;10.962;2023-02-08T09:34:31;102856.38;;;7.99;33.19
45813;BME280;31519;45.408;10.962;2023-02-08T09:37:00;102848.22;;;8.48;33.05
45813;BME280;31519;45.408;10.962;2023-02-08T09:39:27;102847.63;;;9.09;32.30
45813;BME280;31519;45.408;10.962;2023-02-08T09:42:14;102858.94;;;8.64;32.47
45813;BME280;31519;45.408;10.962;2023-02-08T09:47:34;102855.56;;;9.49;30.95
45813;BME280;31519;45.408;10.962;2023-02-08T09:50:17;102861.91;;;9.93;30.99
45813;BME280;31519;45.408;10.962;2023-02-08T09:53:33;102865.31;;;10.05;30.49
45813;BME280;31519;45.408;10.962;2023-02-08T09:56:08;102862.94;;;10.08;30.47
45813;BME280;31519;45.408;10.962;2023-02-08T09:58:44;102866.75;;;9.96;30.43
45813;BME280;31519;45.408;10.962;2023-02-08T10:01:25;102869.97;;;10.14;29.92
45813;BME280;31519;45.408;10.962;2023-02-08T10:06:41;102877.41;;;10.46;29.72
45813;BME280;31519;45.408;10.962;2023-02-08T10:09:12;102878.72;;;10.27;29.86
45813;BME280;31519;45.408;10.962;2023-02-08T10:11:52;102890.16;;;10.82;29.35
45813;BME280;31519;45.408;10.962;2023-02-08T10:34:42;102892.75;;;10.77;28.15
45813;BME280;31519;45.408;10.962;2023-02-08T10:39:56;102886.53;;;10.88;27.55
45813;BME280;31519;45.408;10.962;2023-02-08T10:42:34;102880.88;;;10.63;28.28
45813;BME280;31519;45.408;10.962;2023-02-08T10:45:16;102886.94;;;11.45;27.55
45813;BME280;31519;45.408;10.962;2023-02-08T10:47:57;102882.50;;;11.07;28.05
45813;BME280;31519;45.408;10.962;2023-02-08T10:50:42;102887.81;;;11.29;27.85
45813;BME280;31519;45.408;10.962;2023-02-08T10:53:21;102880.91;;;12.14;27.16
45813;BME280;31519;45.408;10.962;2023-02-08T10:55:57;102883.72;;;12.02;26.97
45813;BME280;31519;45.408;10.962;2023-02-08T10:58:29;102874.88;;;11.96;27.09
45813;BME280;31519;45.408;10.962;2023-02-08T11:01:02;102874.31;;;12.73;26.25
45813;BME280;31519;45.408;10.962;2023-02-08T11:03:33;102875.09;;;12.69;26.05
45813;BME280;31519;45.408;10.962;2023-02-08T11:06:04;102868.63;;;12.60;26.00
45813;BME280;31519;45.408;10.962;2023-02-08T11:08:56;102865.63;;;12.51;26.24
45813;BME280;31519;45.408;10.962;2023-02-08T11:11:26;102869.59;;;12.96;25.43
45813;BME280;31519;45.408;10.962;2023-02-08T11:14:09;102874.38;;;12.88;25.23
45813;BME280;31519;45.408;10.962;2023-02-08T11:16:54;102858.91;;;13.01;25.39
45813;BME280;31519;45.408;10.962;2023-02-08T11:19:37;102861.94;;;12.62;25.40
45813;BME280;31519;45.408;10.962;2023-02-08T11:22:18;102864.88;;;13.18;25.13
45813;BME280;31519;45.408;10.962;2023-02-08T11:25:04;102856.09;;;13.32;25.31
45813;BME280;31519;45.408;10.962;2023-02-08T11:27:38;102855.59;;;12.73;25.44
45813;BME280;31519;45.408;10.962;2023-02-08T11:33:14;102840.31;;;13.61;24.81
45813;BME280;31519;45.408;10.962;2023-02-08T11:36:00;102841.69;;;13.69;24.54
45813;BME280;31519;45.408;10.962;2023-02-08T11:38:33;102841.38;;;13.45;24.65
45813;BME280;31519;45.408;10.962;2023-02-08T11:41:13;102839.75;;;12.62;25.18
45813;BME280;31519;45.408;10.962;2023-02-08T11:43:43;102839.50;;;13.41;25.18
45813;BME280;31519;45.408;10.962;2023-02-08T11:46:25;102835.22;;;13.35;25.21
45813;BME280;31519;45.408;10.962;2023-02-08T11:49:02;102836.28;;;13.34;25.18
45813;BME280;31519;45.408;10.962;2023-02-08T11:51:33;102817.22;;;13.10;24.99
45813;BME280;31519;45.408;10.962;2023-02-08T11:54:04;102834.41;;;12.62;25.72
45813;BME280;31519;45.408;10.962;2023-02-08T11:56:34;102823.72;;;13.54;25.20
45813;BME280;31519;45.408;10.962;2023-02-08T12:01:42;102812.59;;;12.33;25.18
45813;BME280;31519;45.408;10.962;2023-02-08T12:04:13;102815.13;;;13.27;25.20
45813;BME280;31519;45.408;10.962;2023-02-08T12:17:55;102801.94;;;13.00;25.22
45813;BME280;31519;45.408;10.962;2023-02-08T12:25:53;102793.69;;;11.97;25.63
45813;BME280;31519;45.408;10.962;2023-02-08T12:31:12;102781.09;;;13.12;25.14
45813;BME280;31519;45.408;10.962;2023-02-08T12:48:59;102782.78;;;12.56;26.47
45813;BME280;31519;45.408;10.962;2023-02-08T12:57:19;102763.63;;;14.36;24.93
45813;BME280;31519;45.408;10.962;2023-02-08T12:59:53;102761.91;;;14.60;24.97
45813;BME280;31519;45.408;10.962;2023-02-08T13:04:58;102765.22;;;14.42;24.82
45813;BME280;31519;45.408;10.962;2023-02-08T13:07:37;102767.19;;;13.10;25.58
45813;BME280;31519;45.408;10.962;2023-02-08T13:10:26;102769.38;;;12.51;26.50
45813;BME280;31519;45.408;10.962;2023-02-08T13:13:03;102758.75;;;12.04;27.58
45813;BME280;31519;45.408;10.962;2023-02-08T13:15:57;102756.47;;;12.33;27.07
45813;BME280;31519;45.408;10.962;2023-02-08T13:18:36;102754.81;;;11.16;28.42
45813;BME280;31519;45.408;10.962;2023-02-08T13:21:18;102754.47;;;12.60;27.66
45813;BME280;31519;45.408;10.962;2023-02-08T13:23:49;102760.00;;;13.46;26.25
45813;BME280;31519;45.408;10.962;2023-02-08T13:26:32;102753.56;;;13.32;26.22
45813;BME280;31519;45.408;10.962;2023-02-08T13:29:03;102751.94;;;13.21;26.55
45813;BME280;31519;45.408;10.962;2023-02-08T13:31:43;102760.22;;;13.09;26.53
45813;BME280;31519;45.408;10.962;2023-02-08T13:34:32;102743.41;;;13.24;26.08
45813;BME280;31519;45.408;10.962;2023-02-08T13:37:06;102753.28;;;13.49;25.39
45813;BME280;31519;45.408;10.962;2023-02-08T13:40:05;102745.53;;;13.57;24.65
45813;BME280;31519;45.408;10.962;2023-02-08T13:42:46;102749.03;;;13.43;24.54
45813;BME280;31519;45.408;10.962;2023-02-08T13:45:28;102750.88;;;13.52;24.48
45813;BME280;31519;45.408;10.962;2023-02-08T13:48:00;102747.69;;;13.60;24.24
45813;BME280;31519;45.408;10.962;2023-02-08T13:53:06;102751.25;;;14.35;23.30
45813;BME280;31519;45.408;10.962;2023-02-08T13:55:43;102739.81;;;14.09;23.28
45813;BME280;31519;45.408;10.962;2023-02-08T14:01:17;102748.28;;;14.47;23.25
45813;BME280;31519;45.408;10.962;2023-02-08T14:06:36;102740.66;;;14.69;23.21
45813;BME280;31519;45.408;10.962;2023-02-08T14:12:05;102725.53;;;14.39;23.85
45813;BME280;31519;45.408;10.962;2023-02-08T14:14:38;102729.34;;;14.13;24.22
45813;BME280;31519;45.408;10.962;2023-02-08T14:17:17;102732.13;;;13.72;24.88
45813;BME280;31519;45.408;10.962;2023-02-08T14:20:00;102731.97;;;14.28;24.72
45813;BME280;31519;45.408;10.962;2023-02-08T14:22:38;102740.53;;;14.35;24.73
45813;BME280;31519;45.408;10.962;2023-02-08T14:30:42;102751.44;;;14.64;23.66
45813;BME280;31519;45.408;10.962;2023-02-08T14:33:23;102749.16;;;14.17;24.39
45813;BME280;31519;45.408;10.962;2023-02-08T14:36:01;102753.47;;;14.13;24.66
45813;BME280;31519;45.408;10.962;2023-02-08T14:39:04;102753.72;;;14.16;24.76
45813;BME280;31519;45.408;10.962;2023-02-08T14:41:54;102741.81;;;14.53;24.63
45813;BME280;31519;45.408;10.962;2023-02-08T14:52:53;102746.88;;;14.59;24.74
45813;BME280;31519;45.408;10.962;2023-02-08T14:55:26;102748.06;;;14.33;24.62
45813;BME280;31519;45.408;10.962;2023-02-08T14:57:55;102749.13;;;14.37;24.91
45813;BME280;31519;45.408;10.962;2023-02-08T15:00:31;102751.56;;;14.88;24.36
45813;BME280;31519;45.408;10.962;2023-02-08T15:03:02;102753.28;;;15.46;23.73
45813;BME280;31519;45.408;10.962;2023-02-08T15:05:38;102757.94;;;15.99;23.19
45813;BME280;31519;45.408;10.962;2023-02-08T15:08:09;102748.34;;;17.47;21.73
45813;BME280;31519;45.408;10.962;2023-02-08T15:10:41;102751.66;;;17.77;21.49
45813;BME280;31519;45.408;10.962;2023-02-08T15:13:16;102761.16;;;18.29;20.58
45813;BME280;31519;45.408;10.962;2023-02-08T15:15:51;102758.88;;;17.30;21.41
45813;BME280;31519;45.408;10.962;2023-02-08T15:18:31;102748.13;;;17.62;21.56
45813;BME280;31519;45.408;10.962;2023-02-08T15:21:16;102758.84;;;17.49;21.18
45813;BME280;31519;45.408;10.962;2023-02-08T15:24:03;102753.03;;;17.42;21.38
45813;BME280;31519;45.408;10.962;2023-02-08T15:26:34;102755.97;;;17.45;21.04
45813;BME280;31519;45.408;10.962;2023-02-08T15:29:02;102755.28;;;17.02;21.28
45813;BME280;31519;45.408;10.962;2023-02-08T15:31:32;102743.59;;;17.58;21.25
45813;BME280;31519;45.408;10.962;2023-02-08T15:34:01;102745.44;;;17.11;21.02
45813;BME280;31519;45.408;10.962;2023-02-08T15:36:33;102749.47;;;17.14;21.47
45813;BME280;31519;45.408;10.962;2023-02-08T15:39:22;102750.03;;;17.11;21.18
45813;BME280;31519;45.408;10.962;2023-02-08T15:41:56;102750.59;;;17.26;21.10
45813;BME280;31519;45.408;10.962;2023-02-08T15:44:27;102744.59;;;16.97;21.56
45813;BME280;31519;45.408;10.962;2023-02-08T15:47:12;102753.47;;;16.98;21.61
45813;BME280;31519;45.408;10.962;2023-02-08T15:49:45;102751.56;;;16.61;22.24